createdAt,value
2022-10-20T00:01:13.627Z,18.65
2022-10-20T00:03:40.721Z,18.69
2022-10-20T00:06:13.830Z,18.33
2022-10-20T00:08:42.650Z,18.32
2022-10-20T00:11:10.588Z,18.39
2022-10-20T00:13:38.853Z,18.52
2022-10-20T00:16:06.189Z,18.60
2022-10-20T00:18:33.126Z,18.24
2022-10-20T00:20:59.879Z,18.06
2022-10-20T00:23:26.903Z,18.44
2022-10-20T00:26:08.648Z,18.20
2022-10-20T00:28:35.759Z,18.52
2022-10-20T00:31:04.411Z,17.37
2022-10-20T00:33:32.004Z,17.77
2022-10-20T00:36:00.110Z,17.66
2022-10-20T00:38:27.163Z,17.57
2022-10-20T00:40:54.416Z,17.33
2022-10-20T00:43:22.166Z,17.85
2022-10-20T00:45:56.225Z,18.22
2022-10-20T00:48:28.297Z,17.84
2022-10-20T00:50:57.236Z,17.02
2022-10-20T00:53:28.415Z,17.52
2022-10-20T00:55:58.040Z,17.72
2022-10-20T00:58:25.812Z,17.23
2022-10-20T01:00:57.682Z,17.59
2022-10-20T01:03:47.507Z,17.78
2022-10-20T01:08:52.879Z,17.98
2022-10-20T01:11:47.465Z,17.87
2022-10-20T01:14:32.425Z,17.74
2022-10-20T01:17:46.577Z,17.92
2022-10-20T01:20:28.859Z,17.63
2022-10-20T01:23:18.868Z,17.32
2022-10-20T01:26:16.824Z,17.79
2022-10-20T01:28:55.458Z,17.89
2022-10-20T01:31:28.540Z,18.19
2022-10-20T01:34:05.843Z,17.99
2022-10-20T01:36:40.564Z,17.28
2022-10-20T01:39:51.969Z,17.35
2022-10-20T01:42:23.370Z,17.08
2022-10-20T01:44:56.100Z,17.39
2022-10-20T01:47:26.964Z,17.22
2022-10-20T01:49:55.491Z,16.98
2022-10-20T01:52:23.284Z,16.89
2022-10-20T01:54:50.300Z,16.70
2022-10-20T01:57:32.549Z,16.98
2022-10-20T02:00:10.248Z,16.92
2022-10-20T02:03:01.446Z,16.99
2022-10-20T02:05:54.206Z,16.99
2022-10-20T02:08:31.074Z,17.26
2022-10-20T02:11:01.800Z,17.09
2022-10-20T02:13:30.725Z,17.09
2022-10-20T02:16:01.762Z,17.30
2022-10-20T02:18:33.648Z,17.56
2022-10-20T02:21:02.799Z,17.28
2022-10-20T02:23:35.084Z,17.23
2022-10-20T02:26:07.539Z,16.68
2022-10-20T02:28:37.453Z,16.71
2022-10-20T02:31:05.259Z,16.77
2022-10-20T02:33:33.775Z,16.76
2022-10-20T02:36:04.055Z,16.70
2022-10-20T02:38:30.868Z,16.89
2022-10-20T02:40:57.684Z,16.26
2022-10-20T02:43:24.416Z,16.49
2022-10-20T02:45:51.303Z,16.38
2022-10-20T02:48:17.969Z,15.70
2022-10-20T02:50:44.874Z,16.07
2022-10-20T02:53:11.674Z,16.04
2022-10-20T02:55:38.545Z,15.98
2022-10-20T02:58:05.269Z,16.34
2022-10-20T03:00:32.088Z,16.17
2022-10-20T03:02:59.055Z,16.09
2022-10-20T03:05:27.082Z,16.14
2022-10-20T03:07:54.051Z,16.19
2022-10-20T03:10:21.472Z,15.93
2022-10-20T03:12:48.401Z,16.14
2022-10-20T03:15:15.184Z,15.89
2022-10-20T03:17:41.936Z,15.93
2022-10-20T03:20:09.249Z,15.99
2022-10-20T03:22:35.923Z,15.82
2022-10-20T03:25:04.484Z,15.89
2022-10-20T03:27:32.176Z,15.73
2022-10-20T03:29:58.983Z,16.03
2022-10-20T03:32:25.746Z,15.99
2022-10-20T03:34:52.972Z,15.34
2022-10-20T03:37:19.827Z,15.14
2022-10-20T03:39:46.720Z,15.61
2022-10-20T03:42:15.315Z,15.62
2022-10-20T03:44:44.985Z,15.39
2022-10-20T03:47:13.646Z,15.29
2022-10-20T03:49:40.758Z,15.29
2022-10-20T03:52:07.668Z,15.49
2022-10-20T03:54:36.671Z,15.85
2022-10-20T03:57:06.944Z,15.94
2022-10-20T03:59:34.982Z,15.87
2022-10-20T04:02:01.934Z,15.85
2022-10-20T04:04:28.859Z,15.42
2022-10-20T04:06:55.607Z,15.19
2022-10-20T04:09:22.338Z,15.84
2022-10-20T04:11:49.260Z,15.63
2022-10-20T04:14:16.028Z,15.61
2022-10-20T04:16:42.933Z,15.97
2022-10-20T04:19:10.187Z,15.94
2022-10-20T04:21:36.936Z,16.29
2022-10-20T04:24:05.266Z,16.34
2022-10-20T04:26:32.262Z,16.31
2022-10-20T04:28:59.046Z,15.91
2022-10-20T04:31:25.851Z,15.88
2022-10-20T04:33:52.773Z,16.27
2022-10-20T04:36:19.583Z,16.42
2022-10-20T04:38:46.541Z,16.03
2022-10-20T04:41:13.328Z,15.93
2022-10-20T04:43:40.239Z,15.55
2022-10-20T04:46:08.640Z,15.84
2022-10-20T04:48:37.331Z,15.67
2022-10-20T04:51:10.024Z,15.84
2022-10-20T04:53:37.005Z,16.01
2022-10-20T04:56:05.302Z,16.06
2022-10-20T04:58:32.368Z,16.40
2022-10-20T05:01:08.609Z,16.50
2022-10-20T05:03:36.716Z,16.26
2022-10-20T05:06:19.081Z,15.69
2022-10-20T05:08:48.450Z,15.54
2022-10-20T05:11:16.246Z,15.41
2022-10-20T05:13:44.363Z,15.73
2022-10-20T05:16:12.160Z,15.62
2022-10-20T05:18:40.525Z,16.03
2022-10-20T05:21:12.083Z,15.98
2022-10-20T05:23:40.213Z,15.70
2022-10-20T05:26:10.188Z,15.89
2022-10-20T05:28:37.235Z,15.80
2022-10-20T05:31:06.065Z,15.38
2022-10-20T05:33:33.538Z,15.37
2022-10-20T05:36:00.289Z,15.74
2022-10-20T05:38:27.512Z,15.71
2022-10-20T05:40:54.264Z,15.49
2022-10-20T05:43:21.009Z,15.60
2022-10-20T05:45:53.826Z,15.93
2022-10-20T05:48:20.712Z,16.56
2022-10-20T05:50:47.485Z,15.98
2022-10-20T05:53:14.295Z,16.05
2022-10-20T05:55:41.210Z,16.04
2022-10-20T05:58:07.996Z,15.63
2022-10-20T06:00:41.656Z,15.65
2022-10-20T06:03:08.899Z,16.33
2022-10-20T06:05:35.705Z,15.95
2022-10-20T06:08:02.464Z,16.25
2022-10-20T06:10:29.424Z,16.48
2022-10-20T06:12:56.182Z,16.24
2022-10-20T06:15:22.934Z,16.64
2022-10-20T06:17:49.904Z,16.59
2022-10-20T06:20:16.704Z,16.17
2022-10-20T06:22:43.524Z,16.57
2022-10-20T06:25:10.466Z,16.78
2022-10-20T06:27:37.244Z,16.68
2022-10-20T06:30:04.270Z,16.95
2022-10-20T06:32:31.342Z,16.13
2022-10-20T06:34:57.995Z,16.85
2022-10-20T06:37:24.682Z,16.82
2022-10-20T06:39:51.430Z,16.81
2022-10-20T06:42:18.458Z,16.66
2022-10-20T06:44:45.248Z,16.89
2022-10-20T06:47:12.245Z,16.90
2022-10-20T06:49:38.991Z,16.77
2022-10-20T06:52:06.063Z,16.70
2022-10-20T06:54:32.875Z,16.87
2022-10-20T06:56:59.604Z,17.43
2022-10-20T06:59:26.275Z,17.20
2022-10-20T07:01:54.196Z,17.60
2022-10-20T07:04:21.019Z,17.53
2022-10-20T07:06:47.977Z,17.60
2022-10-20T07:09:17.589Z,17.54
2022-10-20T07:11:44.740Z,17.52
2022-10-20T07:14:14.936Z,17.41
2022-10-20T07:16:41.712Z,17.86
2022-10-20T07:19:08.612Z,17.73
2022-10-20T07:21:39.136Z,18.03
2022-10-20T07:24:07.659Z,17.82
2022-10-20T07:26:37.033Z,17.89
2022-10-20T07:29:04.895Z,18.06
2022-10-20T07:31:40.851Z,18.40
2022-10-20T07:34:27.257Z,18.27
2022-10-20T07:36:56.125Z,18.20
2022-10-20T07:39:23.605Z,17.61
2022-10-20T07:41:50.499Z,17.66
2022-10-20T07:44:17.603Z,18.34
2022-10-20T07:46:44.933Z,18.64
2022-10-20T07:49:42.302Z,18.08
2022-10-20T07:51:58.358Z,18.54
2022-10-20T07:54:25.305Z,18.65
2022-10-20T07:56:52.113Z,17.60
2022-10-20T07:59:19.348Z,17.81
2022-10-20T08:01:46.544Z,17.90
2022-10-20T08:04:13.401Z,18.45
2022-10-20T08:06:40.340Z,18.57
2022-10-20T08:09:07.709Z,18.71
2022-10-20T08:11:35.072Z,19.09
2022-10-20T08:14:01.804Z,19.58
2022-10-20T08:21:53.378Z,18.70
2022-10-20T08:24:20.266Z,19.01
2022-10-20T08:26:47.032Z,18.82
2022-10-20T08:29:14.421Z,18.21
2022-10-20T08:31:41.410Z,18.39
2022-10-20T08:34:09.106Z,17.93
2022-10-20T08:36:37.341Z,17.95
2022-10-20T08:39:06.163Z,18.00
2022-10-20T08:41:55.229Z,18.36
2022-10-20T08:44:29.239Z,17.76
2022-10-20T08:46:56.735Z,18.53
2022-10-20T08:49:27.634Z,18.86
2022-10-20T08:51:55.012Z,19.21
2022-10-20T08:54:21.898Z,19.36
2022-10-20T08:56:48.876Z,19.21
2022-10-20T08:59:39.634Z,18.51
2022-10-20T09:02:15.359Z,18.75
2022-10-20T09:04:58.685Z,19.73
2022-10-20T09:07:32.711Z,20.06
2022-10-20T09:10:24.401Z,19.49
2022-10-20T09:12:52.238Z,19.59
2022-10-20T09:15:21.784Z,20.01
2022-10-20T09:18:09.356Z,19.83
2022-10-20T09:20:52.490Z,20.36
2022-10-20T09:23:39.965Z,20.77
2022-10-20T09:26:32.147Z,20.16
2022-10-20T09:29:22.048Z,21.03
2022-10-20T09:31:54.816Z,22.00
2022-10-20T09:34:26.831Z,22.05
2022-10-20T09:37:00.949Z,21.85
2022-10-20T09:39:29.744Z,21.24
2022-10-20T09:42:12.395Z,21.17
2022-10-20T09:45:02.409Z,21.92
2022-10-20T09:47:29.947Z,21.67
2022-10-20T09:50:01.446Z,21.82
2022-10-20T09:52:34.534Z,22.02
2022-10-20T09:55:07.629Z,21.34
2022-10-20T09:57:34.946Z,21.43
2022-10-20T10:00:13.477Z,20.54
2022-10-20T10:02:48.910Z,20.95
2022-10-20T10:05:20.658Z,21.73
2022-10-20T10:07:59.144Z,21.85
2022-10-20T10:10:29.505Z,22.10
2022-10-20T10:13:00.938Z,21.98
2022-10-20T10:15:34.850Z,21.89
2022-10-20T10:18:14.882Z,21.89
2022-10-20T10:20:41.915Z,21.93
2022-10-20T10:23:25.168Z,22.58
2022-10-20T10:25:53.149Z,22.83
2022-10-20T10:28:32.221Z,22.69
2022-10-20T10:31:23.599Z,22.48
2022-10-20T10:33:55.080Z,22.41
2022-10-20T10:36:30.114Z,22.23
2022-10-20T10:38:58.642Z,22.03
2022-10-20T10:41:37.260Z,22.03
2022-10-20T10:44:26.008Z,22.08
2022-10-20T10:47:25.080Z,22.18
2022-10-20T10:50:29.776Z,22.15
2022-10-20T10:53:08.676Z,22.18
2022-10-20T10:56:18.269Z,22.63
2022-10-20T10:59:17.415Z,22.54
2022-10-20T11:02:16.573Z,22.36
2022-10-20T11:08:04.932Z,22.54
2022-10-20T11:10:50.858Z,22.39
2022-10-20T11:13:26.029Z,22.59
2022-10-20T11:16:31.569Z,22.09
2022-10-20T11:19:31.213Z,22.10
2022-10-20T11:22:15.982Z,22.15
2022-10-20T11:24:46.272Z,22.02
2022-10-20T11:27:15.658Z,22.56
2022-10-20T11:29:45.500Z,22.33
2022-10-20T11:32:26.561Z,22.27
2022-10-20T11:35:04.679Z,21.72
2022-10-20T11:37:39.160Z,21.91
2022-10-20T11:40:22.510Z,22.33
2022-10-20T11:43:10.205Z,22.20
2022-10-20T11:45:49.732Z,22.51
2022-10-20T11:48:38.806Z,21.97
2022-10-20T11:51:39.238Z,22.48
2022-10-20T11:54:18.034Z,22.70
2022-10-20T11:56:45.775Z,23.20
2022-10-20T11:59:27.464Z,23.43
2022-10-20T12:02:15.924Z,23.83
2022-10-20T12:05:10.065Z,23.03
2022-10-20T12:08:00.858Z,22.41
2022-10-20T12:11:02.791Z,22.60
2022-10-20T12:14:17.013Z,23.16
2022-10-20T12:16:53.052Z,23.73
2022-10-20T12:19:23.875Z,23.03
2022-10-20T12:22:16.252Z,23.20
2022-10-20T12:25:03.110Z,23.24
2022-10-20T12:27:30.459Z,22.99
2022-10-20T12:30:01.741Z,23.51
2022-10-20T12:32:28.718Z,23.01
2022-10-20T12:34:58.348Z,23.36
2022-10-20T12:37:24.989Z,24.13
2022-10-20T12:39:53.541Z,24.76
2022-10-20T12:42:29.436Z,26.08
2022-10-20T12:45:02.893Z,25.77
2022-10-20T12:47:33.082Z,25.93
2022-10-20T12:50:05.420Z,24.76
2022-10-20T12:52:36.915Z,24.74
2022-10-20T12:55:41.901Z,25.92
2022-10-20T12:58:17.999Z,26.81
2022-10-20T13:00:47.739Z,27.02
2022-10-20T13:03:44.239Z,27.40
2022-10-20T13:06:23.472Z,27.71
2022-10-20T13:09:10.258Z,27.89
2022-10-20T13:11:41.105Z,27.61
2022-10-20T13:14:13.953Z,27.57
2022-10-20T13:16:47.008Z,26.36
2022-10-20T13:19:24.708Z,27.32
2022-10-20T13:21:51.858Z,27.55
2022-10-20T13:24:30.627Z,27.91
2022-10-20T13:27:03.471Z,27.85
2022-10-20T13:29:40.104Z,28.94
2022-10-20T13:32:15.967Z,29.17
2022-10-20T13:34:58.916Z,28.29
2022-10-20T13:37:56.154Z,27.37
2022-10-20T13:40:42.223Z,27.67
2022-10-20T13:43:24.020Z,27.41
2022-10-20T13:45:59.939Z,27.75
2022-10-20T13:48:44.886Z,26.81
2022-10-20T13:51:20.663Z,26.93
2022-10-20T13:53:52.581Z,26.05
2022-10-20T13:56:35.651Z,25.42
2022-10-20T13:59:26.941Z,24.83
2022-10-20T14:02:03.728Z,24.67
2022-10-20T14:04:37.264Z,24.48
2022-10-20T14:07:13.313Z,23.97
2022-10-20T14:09:45.238Z,24.41
2022-10-20T14:12:21.301Z,24.04
2022-10-20T14:14:48.326Z,23.79
2022-10-20T14:17:25.233Z,25.06
2022-10-20T14:20:08.928Z,25.08
2022-10-20T14:22:36.408Z,24.36
2022-10-20T14:25:05.455Z,23.68
2022-10-20T14:27:36.817Z,24.17
2022-10-20T14:30:07.279Z,23.87
2022-10-20T14:32:40.324Z,23.71
2022-10-20T14:35:47.854Z,23.54
2022-10-20T14:38:29.055Z,23.08
2022-10-20T14:40:58.291Z,22.98
2022-10-20T14:43:36.255Z,22.45
2022-10-20T14:46:05.129Z,22.62
2022-10-20T14:48:45.372Z,22.72
2022-10-20T14:51:31.020Z,22.19
2022-10-20T14:54:19.523Z,22.03
2022-10-20T14:56:51.863Z,22.12
2022-10-20T14:59:22.200Z,21.83
2022-10-20T15:02:12.571Z,21.29
2022-10-20T15:04:44.036Z,21.40
2022-10-20T15:07:22.118Z,21.48
2022-10-20T15:10:05.160Z,20.94
2022-10-20T15:12:38.567Z,21.09
2022-10-20T15:15:10.729Z,21.62
2022-10-20T15:17:37.893Z,21.39
2022-10-20T15:20:44.552Z,21.81
2022-10-20T15:23:16.870Z,22.01
2022-10-20T15:26:12.902Z,21.41
2022-10-20T15:28:51.856Z,21.10
2022-10-20T15:31:30.141Z,21.33
2022-10-20T15:33:58.457Z,21.22
2022-10-20T15:36:40.525Z,21.47
2022-10-20T15:39:11.797Z,21.31
2022-10-20T15:41:39.676Z,21.28
2022-10-20T15:44:16.128Z,21.39
2022-10-20T15:46:44.957Z,21.13
2022-10-20T15:49:12.816Z,21.48
2022-10-20T15:51:43.601Z,21.26
2022-10-20T15:54:18.698Z,20.69
2022-10-20T15:56:45.801Z,20.90
2022-10-20T15:59:12.616Z,20.91
2022-10-20T16:01:40.519Z,20.89
2022-10-20T16:04:19.648Z,20.73
2022-10-20T16:06:47.115Z,20.57
2022-10-20T16:09:15.988Z,20.68
2022-10-20T16:11:44.189Z,20.54
2022-10-20T16:14:11.519Z,20.42
2022-10-20T16:16:38.557Z,20.38
2022-10-20T16:19:05.782Z,20.18
2022-10-20T16:21:33.805Z,20.28
2022-10-20T16:24:03.478Z,19.99
2022-10-20T16:26:30.353Z,20.02
2022-10-20T16:28:57.033Z,20.09
2022-10-20T16:31:24.470Z,20.17
2022-10-20T16:33:51.406Z,20.19
2022-10-20T16:36:18.905Z,19.99
2022-10-20T16:38:45.694Z,19.86
2022-10-20T16:41:15.239Z,19.21
2022-10-20T16:43:44.993Z,19.11
2022-10-20T16:46:14.101Z,19.15
2022-10-20T16:48:42.751Z,19.37
2022-10-20T16:51:12.163Z,18.90
2022-10-20T16:53:40.717Z,18.78
2022-10-20T16:56:08.141Z,18.38
2022-10-20T16:58:35.803Z,18.48
2022-10-20T17:01:09.021Z,18.38
2022-10-20T17:03:37.160Z,18.58
2022-10-20T17:06:07.365Z,18.29
2022-10-20T17:08:36.030Z,18.25
2022-10-20T17:11:06.424Z,18.25
2022-10-20T17:13:34.746Z,18.14
2022-10-20T17:16:29.645Z,18.38
2022-10-20T17:18:58.552Z,18.33
2022-10-20T17:21:26.047Z,18.06
2022-10-20T17:23:53.567Z,18.12
2022-10-20T17:26:22.393Z,18.01
2022-10-20T17:28:50.004Z,17.77
2022-10-20T17:31:18.385Z,18.21
2022-10-20T17:33:46.023Z,18.32
2022-10-20T17:36:13.882Z,18.31
2022-10-20T17:38:42.206Z,17.76
2022-10-20T17:41:14.901Z,17.57
2022-10-20T17:43:43.735Z,17.79
2022-10-20T17:46:16.276Z,17.72
2022-10-20T17:48:43.511Z,17.99
2022-10-20T17:51:17.185Z,17.89
2022-10-20T17:53:48.031Z,17.87
2022-10-20T17:56:16.555Z,17.75
2022-10-20T17:58:45.508Z,17.74
2022-10-20T18:01:21.187Z,17.63
2022-10-20T18:03:53.010Z,17.58
2022-10-20T18:06:23.117Z,17.68
2022-10-20T18:08:52.732Z,17.32
2022-10-20T18:11:22.640Z,17.56
2022-10-20T18:13:49.823Z,17.22
2022-10-20T18:16:19.397Z,17.12
2022-10-20T18:18:46.681Z,16.95
2022-10-20T18:21:16.089Z,16.78
2022-10-20T18:23:45.716Z,17.29
2022-10-20T18:26:18.159Z,17.13
2022-10-20T18:28:48.276Z,16.80
2022-10-20T18:31:22.727Z,16.93
2022-10-20T18:34:02.636Z,16.91
2022-10-20T18:36:33.509Z,17.31
2022-10-20T18:39:00.575Z,17.22
2022-10-20T18:41:33.058Z,17.15
2022-10-20T18:44:01.411Z,17.38
2022-10-20T18:46:30.301Z,17.13
2022-10-20T18:48:58.152Z,17.39
2022-10-20T18:51:24.964Z,17.27
2022-10-20T18:53:55.232Z,17.37
2022-10-20T18:56:25.319Z,17.45
2022-10-20T18:58:58.111Z,17.65
2022-10-20T19:01:27.895Z,17.71
2022-10-20T19:03:56.235Z,17.92
2022-10-20T19:06:30.211Z,17.38
2022-10-20T19:08:59.622Z,17.62
2022-10-20T19:11:28.955Z,17.59
2022-10-20T19:13:56.256Z,17.49
2022-10-20T19:16:26.428Z,17.76
2022-10-20T19:18:55.007Z,16.91
2022-10-20T19:21:22.717Z,17.33
2022-10-20T19:23:52.948Z,17.15
2022-10-20T19:26:25.642Z,17.10
2022-10-20T19:28:59.693Z,16.61
2022-10-20T19:31:41.084Z,16.86
2022-10-20T19:34:29.353Z,16.87
2022-10-20T19:36:56.509Z,16.92
2022-10-20T19:39:31.302Z,16.94
2022-10-20T19:41:59.823Z,16.72
2022-10-20T19:44:27.539Z,17.03
2022-10-20T19:46:54.380Z,17.11
2022-10-20T19:49:22.472Z,16.72
2022-10-20T19:51:49.505Z,16.70
2022-10-20T19:54:16.946Z,16.88
2022-10-20T19:56:43.752Z,17.01
2022-10-20T19:59:11.104Z,17.03
2022-10-20T20:01:38.774Z,17.02
2022-10-20T20:04:06.380Z,16.71
2022-10-20T20:06:37.170Z,16.97
2022-10-20T20:09:08.361Z,17.18
2022-10-20T20:11:38.189Z,17.13
2022-10-20T20:14:11.989Z,17.18
2022-10-20T20:16:41.065Z,17.12
2022-10-20T20:19:09.570Z,16.59
2022-10-20T20:21:36.382Z,16.95
2022-10-20T20:24:04.471Z,17.03
2022-10-20T20:26:33.897Z,16.95
2022-10-20T20:29:01.265Z,17.05
2022-10-20T20:31:28.831Z,17.03
2022-10-20T20:33:57.098Z,17.02
2022-10-20T20:36:27.045Z,17.04
2022-10-20T20:38:58.266Z,17.00
2022-10-20T20:41:27.516Z,16.89
2022-10-20T20:43:54.946Z,16.87
2022-10-20T20:46:23.157Z,16.77
2022-10-20T20:48:50.682Z,16.65
2022-10-20T20:51:18.056Z,16.58
2022-10-20T20:53:44.792Z,15.77
2022-10-20T20:56:14.004Z,14.55
2022-10-20T20:58:45.145Z,14.83
2022-10-20T21:01:22.191Z,14.83
2022-10-20T21:03:56.372Z,15.14
2022-10-20T21:06:33.219Z,14.33
2022-10-20T21:09:01.466Z,14.57
2022-10-20T21:11:28.709Z,15.03
2022-10-20T21:13:57.565Z,15.19
2022-10-20T21:16:31.737Z,15.00
2022-10-20T21:19:08.528Z,15.34
2022-10-20T21:21:47.123Z,14.70
2022-10-20T21:24:15.642Z,15.01
2022-10-20T21:26:43.603Z,15.15
2022-10-20T21:29:10.831Z,15.32
2022-10-20T21:31:39.740Z,15.41
2022-10-20T21:34:06.445Z,15.46
2022-10-20T21:36:35.592Z,15.34
2022-10-20T21:39:05.785Z,15.22
2022-10-20T21:41:35.519Z,15.25
2022-10-20T21:44:04.610Z,15.48
2022-10-20T21:46:33.209Z,15.22
2022-10-20T21:49:05.882Z,15.42
2022-10-20T21:51:41.565Z,14.78
2022-10-20T21:54:13.870Z,14.93
2022-10-20T21:56:44.311Z,14.90
2022-10-20T21:59:18.048Z,15.03
2022-10-20T22:01:46.054Z,15.12
2022-10-20T22:04:13.200Z,14.53
2022-10-20T22:06:40.685Z,14.80
2022-10-20T22:09:08.570Z,14.62
2022-10-20T22:11:39.828Z,14.59
2022-10-20T22:14:06.741Z,14.81
2022-10-20T22:16:36.851Z,14.79
2022-10-20T22:19:11.535Z,14.88
2022-10-20T22:21:40.310Z,15.01
2022-10-20T22:24:08.014Z,14.91
2022-10-20T22:26:35.331Z,14.89
2022-10-20T22:29:04.080Z,14.65
2022-10-20T22:31:30.903Z,14.52
2022-10-20T22:33:59.015Z,14.62
2022-10-20T22:36:26.779Z,14.62
2022-10-20T22:38:54.011Z,14.56
2022-10-20T22:41:21.067Z,14.36
2022-10-20T22:43:49.556Z,14.31
2022-10-20T22:46:17.809Z,14.28
2022-10-20T22:48:46.291Z,13.97
2022-10-20T22:51:14.134Z,14.16
2022-10-20T22:53:41.417Z,14.24
2022-10-20T22:56:10.438Z,14.27
2022-10-20T22:58:37.506Z,14.05
2022-10-20T23:01:18.686Z,13.99
2022-10-20T23:03:46.139Z,14.21
2022-10-20T23:06:18.851Z,14.20
2022-10-20T23:08:48.289Z,14.17
2022-10-20T23:11:15.713Z,13.60
2022-10-20T23:13:42.734Z,13.69
2022-10-20T23:16:10.237Z,13.81
2022-10-20T23:18:37.391Z,13.98
2022-10-20T23:21:04.808Z,13.93
2022-10-20T23:23:32.782Z,13.89
2022-10-20T23:26:02.260Z,13.95
2022-10-20T23:28:31.757Z,13.87
2022-10-20T23:31:13.569Z,13.89
2022-10-20T23:33:41.685Z,13.86
2022-10-20T23:36:08.808Z,13.74
2022-10-20T23:38:35.592Z,13.77
2022-10-20T23:41:02.665Z,13.70
2022-10-20T23:43:29.617Z,13.75
2022-10-20T23:45:56.412Z,13.51
2022-10-20T23:48:23.606Z,13.68
2022-10-20T23:50:50.713Z,13.68
2022-10-20T23:53:17.740Z,13.64
2022-10-20T23:55:44.691Z,13.46
2022-10-20T23:58:11.811Z,13.44
